Scotia — MXHR6 — position and weather

sailwx.info

Track history (hours):
 
Tides and Currents Weather Stations Pressure Air Temp Water Temp Dewpoint Dewpoint Depression Visibility Wind Speed Wind Dir Waves Ship Positions

Oceanographic research ship Scotia (UK)

Detailed information on ship capabilities available from University of Delaware's Ocean Information Center.

Last reported at 2018-Feb-23 16:28 UTC. Time now 2018-Feb-23 17:48 UTC.
Position N 54°55' W 009°40'.

Length 68.6 m; beam 15 m; draft 5.6 m.

Type: Other ship. MMSI: 234973000.

Date/timePositionNaut miles runAvg speedWind from/ knotsBaromVisibWave heightAir tempDewpointWater temp
2018-Feb-23 16:28N 54°55' W 009°40'33 5.6
2018-Feb-23 10:38N 55°07' W 008°47'11 8.4
2018-Feb-23 09:17N 55°16' W 008°36'3 8.3
2018-Feb-23 08:57N 55°18' W 008°33'6 8.1
2018-Feb-23 08:11N 55°23' W 008°27'1 2.3
2018-Feb-23 07:54N 55°23' W 008°26'3 2.9
2018-Feb-23 06:48N 55°26' W 008°22'1 3.9
2018-Feb-23 06:26N 55°27' W 008°21'3 5.3
2018-Feb-23 05:56N 55°30' W 008°19'2 3.0
2018-Feb-23 05:18N 55°31' W 008°19'1 3.2
2018-Feb-23 04:59N 55°32' W 008°19'2 3.4
2018-Feb-23 04:23N 55°34' W 008°20'2 3.6
2018-Feb-23 03:58N 55°36' W 008°20'2 3.5
2018-Feb-23 03:27N 55°38' W 008°21'3 4.3
2018-Feb-23 02:45N 55°40' W 008°23'2 7.4
2018-Feb-23 02:30N 55°42' W 008°24'  
2018-Feb-16 01:20N 58°44' W 003°21'611.3
2018-Feb-16 00:50N 58°43' W 003°10'411.0
2018-Feb-16 00:30N 58°42' W 003°03'510.0
2018-Feb-16 00:00N 58°38' W 002°57'4 7.5
2018-Feb-15 23:30N 58°35' W 002°53'54 8.4
2018-Feb-15 17:01N 57°49' W 001°57'0 8.7
2018-Feb-15 16:57N 57°49' W 001°57'4 9.0
2018-Feb-15 16:30N 57°46' W 001°51'510.2
2018-Feb-15 16:00N 57°43' W 001°44'5 9.6
2018-Feb-15 15:30N 57°38' W 001°40'21 5.6
2018-Feb-15 11:51N 57°18' W 001°44'3 9.7
2018-Feb-15 11:30N 57°16' W 001°49'510.1
2018-Feb-15 11:01N 57°12' W 001°56'510.0
2018-Feb-15 10:31N 57°09' W 002°03'1 2.5
2018-Feb-15 10:00N 57°09' W 002°05'0 0.0
2018-Feb-15 09:30N 57°09' W 002°05'0 0.0
2018-Feb-15 09:00N 57°09' W 002°05'0 0.0
2018-Feb-15 08:30N 57°09' W 002°05'0 0.0
2018-Feb-15 08:00N 57°09' W 002°05'0 0.0
2018-Feb-15 07:30N 57°09' W 002°05'0 0.0
2018-Feb-15 07:00N 57°09' W 002°05'0 0.0
2018-Feb-15 06:30N 57°09' W 002°05'0 0.0
2018-Feb-15 06:00N 57°09' W 002°05'0 0.0
2018-Feb-15 05:30N 57°09' W 002°05'0 0.0
2018-Feb-15 05:00N 57°09' W 002°05'0 0.0
2018-Feb-15 04:30N 57°09' W 002°05'0 0.0
2018-Feb-15 04:00N 57°09' W 002°05'0 0.0
2018-Feb-15 03:30N 57°09' W 002°05'0 0.0
2018-Feb-15 03:00N 57°09' W 002°05'0 0.0
2018-Feb-15 02:30N 57°09' W 002°05'0 0.0
2018-Feb-15 02:00N 57°09' W 002°05'0 0.0
2018-Feb-15 01:30N 57°09' W 002°05'0 0.0
2018-Feb-15 01:00N 57°09' W 002°05'0 0.0
2018-Feb-15 00:30N 57°09' W 002°05'0 0.0
2018-Feb-15 00:00N 57°09' W 002°05'0 0.0
2018-Feb-14 23:27N 57°09' W 002°05'0 0.0
2018-Feb-14 23:00N 57°09' W 002°05'0 0.0
2018-Feb-14 22:30N 57°09' W 002°05'0 0.0
2018-Feb-14 22:00N 57°09' W 002°05'0 0.0
2018-Feb-14 21:30N 57°09' W 002°05'0 0.0
2018-Feb-14 21:00N 57°09' W 002°05'0 0.0
2018-Feb-14 20:30N 57°09' W 002°05'0 0.0
2018-Feb-14 20:00N 57°09' W 002°05'0 0.0
2018-Feb-14 19:30N 57°09' W 002°05'0 0.0
2018-Feb-14 19:00N 57°09' W 002°05'0 0.0
2018-Feb-14 18:30N 57°09' W 002°05'0 0.0
2018-Feb-14 18:00N 57°09' W 002°05'0 0.0
2018-Feb-14 17:30N 57°09' W 002°05'0 0.0
2018-Feb-14 17:00N 57°09' W 002°05'0 0.0
2018-Feb-14 16:30N 57°09' W 002°05'0 0.0
2018-Feb-14 16:00N 57°09' W 002°05'0 0.0
2018-Feb-14 15:30N 57°09' W 002°05'0 0.0
2018-Feb-14 15:00N 57°09' W 002°05'0 0.0
2018-Feb-14 14:30N 57°09' W 002°05'0 0.0
2018-Feb-14 14:00N 57°09' W 002°05'0 0.0
2018-Feb-14 13:30N 57°09' W 002°05'0 0.0
2018-Feb-14 13:00N 57°09' W 002°05'0 0.0
2018-Feb-14 12:30N 57°09' W 002°05'0 0.0
2018-Feb-14 12:00N 57°09' W 002°05'0 0.0
2018-Feb-14 11:30N 57°09' W 002°05'0 0.0
2018-Feb-14 11:00N 57°09' W 002°05'0 0.0
2018-Feb-14 10:30N 57°09' W 002°05'0 0.0
2018-Feb-14 10:00N 57°09' W 002°05'0 0.0
2018-Feb-14 09:30N 57°09' W 002°05'0 0.0
2018-Feb-14 09:00N 57°09' W 002°05'0 0.0
2018-Feb-14 08:30N 57°09' W 002°05'0 0.0
2018-Feb-14 08:00N 57°09' W 002°05'0 0.0
2018-Feb-14 07:30N 57°09' W 002°05'0 0.0
2018-Feb-14 07:00N 57°09' W 002°05'0 0.0
2018-Feb-14 06:30N 57°09' W 002°05'0 0.0
2018-Feb-14 06:00N 57°09' W 002°05'0 0.0
2018-Feb-14 05:30N 57°09' W 002°05'0 0.0
2018-Feb-14 05:00N 57°09' W 002°05'0 0.0
2018-Feb-14 04:30N 57°09' W 002°05'0 0.0
2018-Feb-14 04:00N 57°09' W 002°05'0 0.0
2018-Feb-14 03:30N 57°09' W 002°05'0 0.0
2018-Feb-14 03:00N 57°09' W 002°05'0 0.0
2018-Feb-14 02:30N 57°09' W 002°05'0 0.0
2018-Feb-14 02:00N 57°09' W 002°05'0 0.0
2018-Feb-14 01:30N 57°09' W 002°05'0 0.0
2018-Feb-14 01:00N 57°09' W 002°05'0 0.0
2018-Feb-14 00:30N 57°09' W 002°05'0 0.0
2018-Feb-14 00:00N 57°09' W 002°05'0 0.0
2018-Feb-13 23:30N 57°09' W 002°05'0 0.0
2018-Feb-13 23:00N 57°09' W 002°05'0 0.0
2018-Feb-13 22:30N 57°09' W 002°05'0 0.0
2018-Feb-13 22:00N 57°09' W 002°05'0 0.0
2018-Feb-13 21:30N 57°09' W 002°05'0 0.0
2018-Feb-13 21:00N 57°09' W 002°05'0 0.0
2018-Feb-13 20:30N 57°09' W 002°05'0 0.0
2018-Feb-13 20:00N 57°09' W 002°05'0 0.0
2018-Feb-13 19:30N 57°09' W 002°05'0 0.0
2018-Feb-13 19:00N 57°09' W 002°05'0 0.0
2018-Feb-13 18:30N 57°09' W 002°05'0 0.0
2018-Feb-13 18:00N 57°09' W 002°05'0 0.0
2018-Feb-13 17:30N 57°09' W 002°05'0 0.0
2018-Feb-13 17:00N 57°09' W 002°05'0 0.0
2018-Feb-13 16:30N 57°09' W 002°05'  
Track history (hours):
 
Tides and Currents Weather Stations Pressure Air Temp Water Temp Dewpoint Dewpoint Depression Visibility Wind Speed Wind Dir Waves Ship Positions

Oceanographic research ship Scotia (UK)

Detailed information on ship capabilities available from University of Delaware's Ocean Information Center.

Last reported at 2018-Feb-23 16:28 UTC. Time now 2018-Feb-23 17:48 UTC.
Position N 54°55' W 009°40'.

Length 68.6 m; beam 15 m; draft 5.6 m.

Type: Other ship. MMSI: 234973000.

Date/timePositionNaut miles runAvg speedWind from/ knotsBaromVisibWave heightAir tempDewpointWater temp
2018-Feb-23 16:28N 54°55' W 009°40'33 5.6
2018-Feb-23 10:38N 55°07' W 008°47'11 8.4
2018-Feb-23 09:17N 55°16' W 008°36'3 8.3
2018-Feb-23 08:57N 55°18' W 008°33'6 8.1
2018-Feb-23 08:11N 55°23' W 008°27'1 2.3
2018-Feb-23 07:54N 55°23' W 008°26'3 2.9
2018-Feb-23 06:48N 55°26' W 008°22'1 3.9
2018-Feb-23 06:26N 55°27' W 008°21'3 5.3
2018-Feb-23 05:56N 55°30' W 008°19'2 3.0
2018-Feb-23 05:18N 55°31' W 008°19'1 3.2
2018-Feb-23 04:59N 55°32' W 008°19'2 3.4
2018-Feb-23 04:23N 55°34' W 008°20'2 3.6
2018-Feb-23 03:58N 55°36' W 008°20'2 3.5
2018-Feb-23 03:27N 55°38' W 008°21'3 4.3
2018-Feb-23 02:45N 55°40' W 008°23'2 7.4
2018-Feb-23 02:30N 55°42' W 008°24'  
2018-Feb-16 01:20N 58°44' W 003°21'611.3
2018-Feb-16 00:50N 58°43' W 003°10'411.0
2018-Feb-16 00:30N 58°42' W 003°03'510.0
2018-Feb-16 00:00N 58°38' W 002°57'4 7.5
2018-Feb-15 23:30N 58°35' W 002°53'54 8.4
2018-Feb-15 17:01N 57°49' W 001°57'0 8.7
2018-Feb-15 16:57N 57°49' W 001°57'4 9.0
2018-Feb-15 16:30N 57°46' W 001°51'510.2
2018-Feb-15 16:00N 57°43' W 001°44'5 9.6
2018-Feb-15 15:30N 57°38' W 001°40'21 5.6
2018-Feb-15 11:51N 57°18' W 001°44'3 9.7
2018-Feb-15 11:30N 57°16' W 001°49'510.1
2018-Feb-15 11:01N 57°12' W 001°56'510.0
2018-Feb-15 10:31N 57°09' W 002°03'1 2.5
2018-Feb-15 10:00N 57°09' W 002°05'0 0.0
2018-Feb-15 09:30N 57°09' W 002°05'0 0.0
2018-Feb-15 09:00N 57°09' W 002°05'0 0.0
2018-Feb-15 08:30N 57°09' W 002°05'0 0.0
2018-Feb-15 08:00N 57°09' W 002°05'0 0.0
2018-Feb-15 07:30N 57°09' W 002°05'0 0.0
2018-Feb-15 07:00N 57°09' W 002°05'0 0.0
2018-Feb-15 06:30N 57°09' W 002°05'0 0.0
2018-Feb-15 06:00N 57°09' W 002°05'0 0.0
2018-Feb-15 05:30N 57°09' W 002°05'0 0.0
2018-Feb-15 05:00N 57°09' W 002°05'0 0.0
2018-Feb-15 04:30N 57°09' W 002°05'0 0.0
2018-Feb-15 04:00N 57°09' W 002°05'0 0.0
2018-Feb-15 03:30N 57°09' W 002°05'0 0.0
2018-Feb-15 03:00N 57°09' W 002°05'0 0.0
2018-Feb-15 02:30N 57°09' W 002°05'0 0.0
2018-Feb-15 02:00N 57°09' W 002°05'0 0.0
2018-Feb-15 01:30N 57°09' W 002°05'0 0.0
2018-Feb-15 01:00N 57°09' W 002°05'0 0.0
2018-Feb-15 00:30N 57°09' W 002°05'0 0.0
2018-Feb-15 00:00N 57°09' W 002°05'0 0.0
2018-Feb-14 23:27N 57°09' W 002°05'0 0.0
2018-Feb-14 23:00N 57°09' W 002°05'0 0.0
2018-Feb-14 22:30N 57°09' W 002°05'0 0.0
2018-Feb-14 22:00N 57°09' W 002°05'0 0.0
2018-Feb-14 21:30N 57°09' W 002°05'0 0.0
2018-Feb-14 21:00N 57°09' W 002°05'0 0.0
2018-Feb-14 20:30N 57°09' W 002°05'0 0.0
2018-Feb-14 20:00N 57°09' W 002°05'0 0.0
2018-Feb-14 19:30N 57°09' W 002°05'0 0.0
2018-Feb-14 19:00N 57°09' W 002°05'0 0.0
2018-Feb-14 18:30N 57°09' W 002°05'0 0.0
2018-Feb-14 18:00N 57°09' W 002°05'0 0.0
2018-Feb-14 17:30N 57°09' W 002°05'0 0.0
2018-Feb-14 17:00N 57°09' W 002°05'0 0.0
2018-Feb-14 16:30N 57°09' W 002°05'0 0.0
2018-Feb-14 16:00N 57°09' W 002°05'0 0.0
2018-Feb-14 15:30N 57°09' W 002°05'0 0.0
2018-Feb-14 15:00N 57°09' W 002°05'0 0.0
2018-Feb-14 14:30N 57°09' W 002°05'0 0.0
2018-Feb-14 14:00N 57°09' W 002°05'0 0.0
2018-Feb-14 13:30N 57°09' W 002°05'0 0.0
2018-Feb-14 13:00N 57°09' W 002°05'0 0.0
2018-Feb-14 12:30N 57°09' W 002°05'0 0.0
2018-Feb-14 12:00N 57°09' W 002°05'0 0.0
2018-Feb-14 11:30N 57°09' W 002°05'0 0.0
2018-Feb-14 11:00N 57°09' W 002°05'0 0.0
2018-Feb-14 10:30N 57°09' W 002°05'0 0.0
2018-Feb-14 10:00N 57°09' W 002°05'0 0.0
2018-Feb-14 09:30N 57°09' W 002°05'0 0.0
2018-Feb-14 09:00N 57°09' W 002°05'0 0.0
2018-Feb-14 08:30N 57°09' W 002°05'0 0.0
2018-Feb-14 08:00N 57°09' W 002°05'0 0.0
2018-Feb-14 07:30N 57°09' W 002°05'0 0.0
2018-Feb-14 07:00N 57°09' W 002°05'0 0.0
2018-Feb-14 06:30N 57°09' W 002°05'0 0.0
2018-Feb-14 06:00N 57°09' W 002°05'0 0.0
2018-Feb-14 05:30N 57°09' W 002°05'0 0.0
2018-Feb-14 05:00N 57°09' W 002°05'0 0.0
2018-Feb-14 04:30N 57°09' W 002°05'0 0.0
2018-Feb-14 04:00N 57°09' W 002°05'0 0.0
2018-Feb-14 03:30N 57°09' W 002°05'0 0.0
2018-Feb-14 03:00N 57°09' W 002°05'0 0.0
2018-Feb-14 02:30N 57°09' W 002°05'0 0.0
2018-Feb-14 02:00N 57°09' W 002°05'0 0.0
2018-Feb-14 01:30N 57°09' W 002°05'0 0.0
2018-Feb-14 01:00N 57°09' W 002°05'0 0.0
2018-Feb-14 00:30N 57°09' W 002°05'0 0.0
2018-Feb-14 00:00N 57°09' W 002°05'0 0.0
2018-Feb-13 23:30N 57°09' W 002°05'0 0.0
2018-Feb-13 23:00N 57°09' W 002°05'0 0.0
2018-Feb-13 22:30N 57°09' W 002°05'0 0.0
2018-Feb-13 22:00N 57°09' W 002°05'0 0.0
2018-Feb-13 21:30N 57°09' W 002°05'0 0.0
2018-Feb-13 21:00N 57°09' W 002°05'0 0.0
2018-Feb-13 20:30N 57°09' W 002°05'0 0.0
2018-Feb-13 20:00N 57°09' W 002°05'0 0.0
2018-Feb-13 19:30N 57°09' W 002°05'0 0.0
2018-Feb-13 19:00N 57°09' W 002°05'0 0.0
2018-Feb-13 18:30N 57°09' W 002°05'0 0.0
2018-Feb-13 18:00N 57°09' W 002°05'0 0.0
2018-Feb-13 17:30N 57°09' W 002°05'0 0.0
2018-Feb-13 17:00N 57°09' W 002°05'0 0.0
2018-Feb-13 16:30N 57°09' W 002°05'  

Dump ship's entire track history